Kiana, AK (99749)

3:08 AM AKDT on May 21, 2018 (GMT -0800)
Baker Memorial | | Change Station

Elev 167 ft 66.98 °N, 160.44 °W | Updated 12 minutes ago

Mostly Cloudy
Mostly Cloudy
45 °F
Feels Like 40 °F
N
10
Wind Variable Wind from NNW

Today
High -- | Low -- °F
--% Chance of Precip.
Yesterday
High -- | Low -- °F
Precip. -- in
Pressure 29.59 in
Visibility 10.0 miles
Clouds Mostly Cloudy 9000 ft
Windchill 40 °F
Dew Point 34 °F
Humidity 65%
Rainfall 0.00 in
Snow Depth Not available.
4:18 AM 1:03 AM
Waxing Crescent, 42% visible
METAR PAIK 211056Z AUTO 34009KT 10SM BKN090 07/01 A2958 RMK AO2 SLP019 T00720011
Pressure 29.59 in
Visibility 10.0 miles
Clouds Mostly Cloudy 9000 ft
Windchill 40 °F
Dew Point 34 °F
Humidity 65%
Rainfall 0.00 in
Snow Depth Not available.
4:18 AM 1:03 AM
Waxing Crescent, 42% visible
METAR PAIK 211056Z AUTO 34009KT 10SM BKN090 07/01 A2958 RMK AO2 SLP019 T00720011

Get Severe Weather Alerts

Thanks for signing up!

Be on the lookout for a verification email in your inbox.

You'll start receiving the daily forecast at 6 AM.

×

10-Day Weather Forecast

Almanac

Astronomy

May. 21, 2018 Rise Set
Actual Time
Civil Twilight
Nautical Twilight
Astronomical Twilight
Moon
Length of Visible Light
Length of Day
Tomorrow will be .
, % of the Moon is Illuminated

Today's Extremes

State Highs State Lows

Community

WunderPhotos

Category 6

Welcome to Category 6. This is the collective home for Weather Underground's featured writeups by Dr. Jeff Masters (right), Bob Henson (left), Chris Burt, and other regular contributors.

Nearby

Air Quality

  Air Quality AQ Index Pollutant
Not available.

Snow Depth

Station Depth Elevation

Earthquake Activity

City Distance Mag. Time & Date
Minimum magnitude displayed is 2.5.

Coastal Water Temperatures

Place Temperature

Stations

Nearby Weather Stations

Station Location Temp. Windchill Dew Point Humidity Wind Precip. Elev Updated Type
                   

Watches & Warnings

There are currently no watches in effect.